KENV/ENV METAR and TAF weather

Enter ICAO airport designator
Station Type Date Time Source
KENV METAR 2019/08/24 08:56 UTC NOAA

KENV 240856Z AUTO VRB03KT 10SM CLR 18/04 A2999 RMK AO2 SLP119 T01830044 51005


Station Type Date Time Source
KENV Decoded METAR 2019/08/24 08:56 UTC NOAA

Station name not available
Aug 24, 2019 - 04:56 AM EDT / 2019.08.24 0856 UTC
Wind: Variable at 3 MPH (3 KT):0
Visibility: 10 mile(s):0
Sky conditions: clear
Temperature: 64.9 F (18.3 C)
Dew Point: 39.9 F (4.4 C)
Relative Humidity: 39%
Pressure (altimeter): 29.99 in. Hg (1015 hPa)
Pressure tendency: 0.01 inches (0.5 hPa) higher than three hours ago
ob: KENV 240856Z AUTO VRB03KT 10SM CLR 18/04 A2999 RMK AO2 SLP119 T01830044 51005
cycle: 9

Station Type Date Time Source
KENV TAF 2019/08/24 06:22 UTC NOAA

TAF KENV 240520Z 2406/2506 VRB04KT P6SM SKC
FM241700 10008KT P6SM SKC
FM250200 28007KT P6SM SKC

Example: see airport list